This is the latest recevied weather packets stored in our database for station/object K5GHS-1. If no packets are shown the sender has not sent any weather packets the latest 10 day(s).
| Time | Temp. | Humidity | Pressure | Rain* | Wind** | Luminosity | Snow |
|---|---|---|---|---|---|---|---|
| 1777986840 | 22.78° C | 83% | 1003.1 hPa | 0 mm | - | 71 W/m² | - |
| 1777986538 | 22.78° C | 83% | 1003.2 hPa | 0 mm | - | 59 W/m² | - |
| 1777986236 | 22.78° C | 83% | 1002.6 hPa | 0 mm | - | 32 W/m² | - |
| 1777985933 | 22.78° C | 83% | 1003 hPa | 0 mm | - | 44 W/m² | - |
| 1777985631 | 22.78° C | 83% | 1003 hPa | 0 mm | - | 35 W/m² | - |
| 1777985327 | 22.78° C | 84% | 1002.7 hPa | 0 mm | - | 35 W/m² | - |
| 1777985024 | 22.22° C | 84% | 1002.7 hPa | 0 mm | - | 29 W/m² | - |
| 1777984719 | 22.22° C | 84% | 1002.5 hPa | 0 mm | - | 29 W/m² | - |
| 1777984416 | 22.22° C | 84% | 1002.3 hPa | 0 mm | - | 20 W/m² | - |
| 1777984112 | 22.78° C | 84% | 1002.4 hPa | 0 mm | - | 19 W/m² | - |
| 1777983810 | 22.22° C | 84% | 1002.4 hPa | 0 mm | - | 19 W/m² | - |
| 1777983506 | 22.22° C | 84% | 1002.3 hPa | 0 mm | - | 12 W/m² | - |
| 1777983204 | 22.22° C | 84% | 1002.2 hPa | 0 mm | - | 12 W/m² | - |
| 1777982899 | 22.22° C | 84% | 1002.2 hPa | 0 mm | - | 12 W/m² | - |
| 1777982596 | 22.22° C | 84% | 1002.3 hPa | 0 mm | - | 8 W/m² | - |
| 1777982294 | 22.22° C | 84% | 1002.1 hPa | 0 mm | - | 4 W/m² | - |
| 1777981992 | 22.22° C | 84% | 1002.2 hPa | 0 mm | - | 5 W/m² | - |
| 1777981689 | 22.22° C | 84% | 1002.2 hPa | 0 mm | - | 2 W/m² | - |
| 1777981386 | 22.22° C | 84% | 1002 hPa | 0 mm | - | 0 W/m² | - |
| 1777981083 | 22.22° C | 84% | 1002.2 hPa | 0 mm | - | 0 W/m² | - |
| 1777980779 | 22.22° C | 84% | 1002 hPa | 0 mm | - | 0 W/m² | - |
| 1777980474 | 22.22° C | 85% | 1002 hPa | 0 mm | - | 0 W/m² | - |
| 1777980172 | 21.67° C | 85% | 1001.8 hPa | 0 mm | - | 0 W/m² | - |
| 1777979867 | 21.67° C | 86% | 1002 hPa | 0 mm | - | 0 W/m² | - |
| 1777979563 | 21.67° C | 86% | 1001.8 hPa | 0 mm | - | 0 W/m² | - |
* Rain latest hour (hover to see other rain measurements)
** Current wind speed in m/s (hover to see current wind gust speed)